Time;durP1;ratioP1;P1;durP2;ratioP2;P2;SDS_P1;SDS_P2;PMS_P1;PMS_P2;Temp;Humidity;BMP_temperature;BMP_pressure;BME280_temperature;BME280_humidity;BME280_pressure;Samples;Min_cycle;Max_cycle;Signal;HPM_P1;HPM_P2
2021/01/31 00:01:03;;;;;;;103.65;21.63;;;;;;;;;;6248833;22;20024;-82
2021/01/31 00:03:32;;;;;;;122.90;22.92;;;;;;;;;;6246589;23;20067;-82
2021/01/31 00:06:11;;;;;;;47.45;19.95;;;;;;;;;;6249662;22;20187;-83
2021/01/31 00:08:37;;;;;;;55.88;18.33;;;;;;;;;;6249753;22;20102;-82
2021/01/31 00:11:03;;;;;;;73.07;20.60;;;;;;;;;;6248757;23;20386;-82
2021/01/31 00:13:32;;;;;;;67.10;19.90;;;;;;;;;;6254778;22;20039;-83
2021/01/31 00:16:05;;;;;;;93.30;21.55;;;;;;;;;;6263992;23;20068;-83
2021/01/31 00:18:33;;;;;;;208.10;24.05;;;;;;;;;;6263208;23;20032;-82
2021/01/31 00:20:59;;;;;;;131.85;22.08;;;;;;;;;;6256139;23;20023;-82
2021/01/31 00:23:29;;;;;;;110.88;20.83;;;;;;;;;;6248130;23;20078;-82
2021/01/31 00:26:09;;;;;;;46.00;19.85;;;;;;;;;;6248204;23;20076;-82
2021/01/31 00:28:35;;;;;;;116.82;21.60;;;;;;;;;;6249494;22;20016;-82
2021/01/31 00:31:04;;;;;;;220.93;26.58;;;;;;;;;;6248867;22;20055;-82
2021/01/31 00:33:31;;;;;;;41.45;19.00;;;;;;;;;;6247292;23;20020;-82
2021/01/31 00:36:07;;;;;;;70.30;19.83;;;;;;;;;;6233782;23;20024;-82
2021/01/31 00:38:33;;;;;;;42.03;17.95;;;;;;;;;;6247745;23;20028;-82
2021/01/31 00:41:00;;;;;;;36.28;18.98;;;;;;;;;;6247791;23;20034;-82
2021/01/31 00:43:33;;;;;;;41.00;19.33;;;;;;;;;;6247964;23;20047;-83
2021/01/31 00:45:59;;;;;;;69.93;21.30;;;;;;;;;;6250497;22;20325;-82
2021/01/31 00:48:25;;;;;;;39.75;18.67;;;;;;;;;;6249301;22;20016;-82
2021/01/31 00:50:56;;;;;;;35.08;17.75;;;;;;;;;;6248362;22;20082;-82
2021/01/31 00:53:36;;;;;;;33.83;17.90;;;;;;;;;;6247134;22;20367;-82
2021/01/31 00:56:05;;;;;;;69.03;19.63;;;;;;;;;;6247535;23;20056;-83
2021/01/31 00:58:32;;;;;;;91.25;21.17;;;;;;;;;;6247171;22;20028;-82
2021/01/31 01:01:04;;;;;;;135.90;20.83;;;;;;;;;;6247055;23;20057;-82
2021/01/31 01:03:31;;;;;;;81.70;17.77;;;;;;;;;;6249052;22;20027;-82
2021/01/31 01:06:09;;;;;;;36.40;17.23;;;;;;;;;;6247458;23;20020;-84
2021/01/31 01:08:39;;;;;;;666.88;50.08;;;;;;;;;;6249310;23;20035;-82
2021/01/31 01:11:05;;;;;;;242.45;23.10;;;;;;;;;;6249342;23;20081;-83
2021/01/31 01:13:37;;;;;;;56.22;15.73;;;;;;;;;;6247654;23;20024;-82
2021/01/31 01:16:07;;;;;;;34.47;14.63;;;;;;;;;;6246706;23;20027;-82
2021/01/31 01:18:35;;;;;;;39.00;16.40;;;;;;;;;;6248883;22;20028;-82
2021/01/31 01:21:08;;;;;;;71.85;16.80;;;;;;;;;;6246866;23;20032;-82
2021/01/31 01:23:40;;;;;;;30.08;14.32;;;;;;;;;;6260099;22;20016;-82
2021/01/31 01:26:14;;;;;;;33.28;15.05;;;;;;;;;;6265328;22;20016;-81
2021/01/31 01:28:46;;;;;;;;;;;;;;;;;;6265127;22;20094;-82
2021/01/31 01:31:14;;;;;;;56.00;15.70;;;;;;;;;;6249955;23;20293;-82
2021/01/31 01:33:40;;;;;;;31.38;14.52;;;;;;;;;;6248526;22;20063;-82
2021/01/31 01:36:12;;;;;;;24.98;13.88;;;;;;;;;;6255874;22;20048;-82
2021/01/31 01:38:38;;;;;;;37.40;15.63;;;;;;;;;;6265692;22;20016;-82
2021/01/31 01:41:10;;;;;;;32.55;16.25;;;;;;;;;;6256198;22;20028;-82
2021/01/31 01:43:43;;;;;;;43.22;17.63;;;;;;;;;;6247882;22;20032;-82
2021/01/31 01:46:17;;;;;;;33.13;16.40;;;;;;;;;;6247098;23;20032;-82
2021/01/31 01:49:10;;;;;;;27.95;13.77;;;;;;;;;;6247531;23;20036;-81
2021/01/31 01:51:50;;;;;;;31.70;16.20;;;;;;;;;;6243466;23;20071;-81
2021/01/31 01:54:19;;;;;;;30.00;14.63;;;;;;;;;;6245936;23;20024;-82
2021/01/31 01:56:51;;;;;;;24.63;12.82;;;;;;;;;;6248147;22;20206;-82
2021/01/31 01:59:17;;;;;;;27.95;13.55;;;;;;;;;;6246706;23;20303;-82
2021/01/31 02:01:49;;;;;;;32.28;14.82;;;;;;;;;;6246118;23;20199;-82
2021/01/31 02:04:15;;;;;;;29.98;15.32;;;;;;;;;;6248534;22;20028;-81
2021/01/31 02:06:41;;;;;;;28.35;14.85;;;;;;;;;;6247082;23;20278;-82
2021/01/31 02:09:11;;;;;;;29.00;13.50;;;;;;;;;;6247545;23;20150;-83
2021/01/31 02:11:37;;;;;;;29.67;14.48;;;;;;;;;;6248168;23;20032;-82
2021/01/31 02:14:10;;;;;;;49.17;16.67;;;;;;;;;;6249924;23;20024;-83
2021/01/31 02:16:47;;;;;;;52.45;16.55;;;;;;;;;;6254674;22;20024;-82
2021/01/31 02:19:31;;;;;;;65.95;16.60;;;;;;;;;;6252976;22;20024;-82
2021/01/31 02:22:12;;;;;;;35.15;15.88;;;;;;;;;;6254878;23;20030;-82
2021/01/31 02:24:48;;;;;;;115.60;18.27;;;;;;;;;;6251348;22;20028;-82
2021/01/31 02:27:24;;;;;;;32.97;14.02;;;;;;;;;;6251270;23;20034;-83
2021/01/31 02:30:01;;;;;;;189.65;23.85;;;;;;;;;;6253236;22;20041;-81
2021/01/31 02:32:34;;;;;;;68.35;17.45;;;;;;;;;;6252870;22;20377;-81
2021/01/31 02:35:05;;;;;;;44.10;16.98;;;;;;;;;;6253133;23;20382;-81
2021/01/31 02:37:43;;;;;;;49.60;19.77;;;;;;;;;;6250075;23;20592;-81
2021/01/31 02:40:20;;;;;;;40.08;18.50;;;;;;;;;;6225074;23;20028;-81
2021/01/31 02:42:46;;;;;;;62.75;18.38;;;;;;;;;;6251085;22;20016;-81
2021/01/31 02:45:12;;;;;;;64.35;18.27;;;;;;;;;;6250065;23;20086;-81
2021/01/31 02:48:08;;;;;;;127.70;21.13;;;;;;;;;;6250451;22;20043;-81
2021/01/31 02:50:39;;;;;;;82.90;19.95;;;;;;;;;;6224339;23;20078;-80
2021/01/31 02:53:07;;;;;;;96.15;21.08;;;;;;;;;;6248542;23;20028;-81
2021/01/31 02:55:52;;;;;;;140.93;20.83;;;;;;;;;;6247404;23;20028;-81
2021/01/31 02:58:24;;;;;;;57.33;17.95;;;;;;;;;;6248113;22;20016;-81
2021/01/31 03:00:56;;;;;;;72.78;19.70;;;;;;;;;;6247251;22;20027;-81
2021/01/31 03:03:31;;;;;;;41.53;17.35;;;;;;;;;;6250034;22;20051;-81
2021/01/31 03:06:02;;;;;;;76.30;17.85;;;;;;;;;;6247672;23;20032;-78
2021/01/31 03:08:49;;;;;;;52.97;18.35;;;;;;;;;;6246755;22;20373;-78
2021/01/31 03:11:18;;;;;;;59.25;17.98;;;;;;;;;;6244281;23;20035;-79
2021/01/31 03:14:01;;;;;;;105.10;20.05;;;;;;;;;;6245020;23;20079;-79
2021/01/31 03:16:33;;;;;;;69.22;18.55;;;;;;;;;;6247182;22;20032;-78
2021/01/31 03:19:07;;;;;;;34.47;16.70;;;;;;;;;;6246892;22;20023;-79
2021/01/31 03:21:34;;;;;;;49.42;16.75;;;;;;;;;;6247229;22;20031;-79
2021/01/31 03:24:32;;;;;;;30.80;16.00;;;;;;;;;;6243690;23;20402;-79
2021/01/31 03:27:13;;;;;;;76.93;17.10;;;;;;;;;;6179879;23;20028;-80
2021/01/31 03:29:39;;;;;;;54.45;15.90;;;;;;;;;;6245225;23;20031;-79
2021/01/31 03:32:16;;;;;;;56.22;15.60;;;;;;;;;;6246207;23;20035;-79
2021/01/31 03:34:46;;;;;;;34.65;15.63;;;;;;;;;;6246612;22;20543;-79
2021/01/31 03:37:12;;;;;;;78.78;18.23;;;;;;;;;;6244319;23;20035;-79
2021/01/31 03:39:40;;;;;;;108.82;18.77;;;;;;;;;;6243458;23;20035;-78
2021/01/31 03:42:06;;;;;;;84.32;18.38;;;;;;;;;;6244917;23;20401;-79
2021/01/31 03:44:34;;;;;;;38.88;15.32;;;;;;;;;;6246956;23;20087;-79
2021/01/31 03:47:08;;;;;;;41.33;16.05;;;;;;;;;;6245830;22;20481;-78
2021/01/31 03:49:38;;;;;;;41.75;17.50;;;;;;;;;;6246480;22;20032;-78
2021/01/31 03:52:08;;;;;;;61.88;18.10;;;;;;;;;;6244245;23;20032;-78
2021/01/31 03:54:36;;;;;;;39.15;16.02;;;;;;;;;;6243763;23;20032;-78
2021/01/31 03:57:05;;;;;;;109.93;19.60;;;;;;;;;;6245400;22;20028;-78
2021/01/31 03:59:52;;;;;;;50.92;14.85;;;;;;;;;;6247404;22;20024;-78
2021/01/31 04:02:20;;;;;;;99.88;17.52;;;;;;;;;;6248824;23;20024;-78
2021/01/31 04:04:59;;;;;;;47.58;17.02;;;;;;;;;;6253526;22;20039;-78
2021/01/31 04:07:37;;;;;;;92.55;16.42;;;;;;;;;;6251161;23;20040;-78
2021/01/31 04:10:03;;;;;;;37.20;13.63;;;;;;;;;;6248056;23;20027;-80
2021/01/31 04:12:34;;;;;;;33.60;15.55;;;;;;;;;;6254826;22;20386;-78
2021/01/31 04:15:03;;;;;;;36.53;15.20;;;;;;;;;;6257607;23;20229;-79
2021/01/31 04:17:29;;;;;;;30.38;16.30;;;;;;;;;;6244428;23;20024;-79
2021/01/31 04:19:55;;;;;;;32.10;16.83;;;;;;;;;;6245505;22;20078;-78
2021/01/31 04:22:30;;;;;;;34.92;16.48;;;;;;;;;;6247113;22;20067;-80
2021/01/31 04:24:57;;;;;;;31.75;15.35;;;;;;;;;;6247619;22;20028;-78
2021/01/31 04:27:32;;;;;;;32.85;14.80;;;;;;;;;;6245201;23;20028;-78
2021/01/31 04:30:08;;;;;;;27.95;14.48;;;;;;;;;;6248367;22;20039;-80
2021/01/31 04:32:35;;;;;;;33.17;16.30;;;;;;;;;;6248290;23;20039;-80
2021/01/31 04:35:08;;;;;;;34.25;16.20;;;;;;;;;;6245691;23;20024;-80
2021/01/31 04:37:35;;;;;;;26.30;14.45;;;;;;;;;;6248015;22;20035;-80
2021/01/31 04:40:03;;;;;;;37.53;17.30;;;;;;;;;;6247054;23;20024;-80
2021/01/31 04:42:32;;;;;;;31.23;16.45;;;;;;;;;;6247420;23;20353;-80
2021/01/31 04:45:01;;;;;;;30.27;16.05;;;;;;;;;;6249060;22;20390;-80
2021/01/31 04:47:44;;;;;;;36.95;17.33;;;;;;;;;;6249958;22;20027;-79
2021/01/31 04:50:17;;;;;;;25.52;13.98;;;;;;;;;;6253340;23;20016;-79
2021/01/31 04:52:46;;;;;;;32.88;16.85;;;;;;;;;;6252603;23;20074;-80
2021/01/31 04:55:21;;;;;;;36.42;16.42;;;;;;;;;;6252323;23;20088;-80
2021/01/31 04:57:53;;;;;;;27.42;12.73;;;;;;;;;;6248704;22;20059;-80
2021/01/31 05:00:21;;;;;;;34.58;15.18;;;;;;;;;;6246952;22;20024;-80
2021/01/31 05:02:51;;;;;;;34.45;16.75;;;;;;;;;;6247160;22;20028;-80
2021/01/31 05:05:18;;;;;;;57.78;17.30;;;;;;;;;;6248622;23;20082;-79
2021/01/31 05:07:47;;;;;;;52.15;17.52;;;;;;;;;;6258090;23;20055;-80
2021/01/31 05:10:14;;;;;;;41.25;17.17;;;;;;;;;;6260648;22;20028;-79
2021/01/31 05:13:06;;;;;;;37.75;16.73;;;;;;;;;;6249794;23;20092;-80
2021/01/31 05:15:40;;;;;;;43.78;16.38;;;;;;;;;;6243818;23;20032;-79
2021/01/31 05:18:07;;;;;;;42.60;17.38;;;;;;;;;;6248247;23;20115;-79
2021/01/31 05:20:34;;;;;;;43.00;17.60;;;;;;;;;;6259606;22;20165;-79
2021/01/31 05:23:07;;;;;;;34.80;16.35;;;;;;;;;;6257816;23;20133;-79
2021/01/31 05:25:35;;;;;;;34.90;16.48;;;;;;;;;;6249618;22;20243;-80
2021/01/31 05:28:03;;;;;;;42.95;18.15;;;;;;;;;;6249311;22;20028;-80
2021/01/31 05:30:32;;;;;;;37.08;17.02;;;;;;;;;;6248964;23;20058;-80
2021/01/31 05:33:01;;;;;;;38.83;17.67;;;;;;;;;;6252199;23;20027;-80
2021/01/31 05:35:28;;;;;;;36.83;16.83;;;;;;;;;;6266571;23;20022;-80
2021/01/31 05:37:58;;;;;;;47.47;17.73;;;;;;;;;;6267145;23;20022;-80
2021/01/31 05:40:30;;;;;;;39.33;16.15;;;;;;;;;;6269644;22;20016;-80
2021/01/31 05:42:57;;;;;;;58.63;18.30;;;;;;;;;;6267209;22;20028;-80
2021/01/31 05:45:31;;;;;;;34.50;15.57;;;;;;;;;;6249637;23;20031;-80
2021/01/31 05:47:58;;;;;;;35.40;16.10;;;;;;;;;;6251122;22;20051;-80
2021/01/31 05:50:24;;;;;;;34.67;15.68;;;;;;;;;;6247878;23;20086;-80
2021/01/31 05:53:20;;;;;;;53.53;16.92;;;;;;;;;;6246124;23;20024;-81
2021/01/31 05:55:46;;;;;;;44.75;17.10;;;;;;;;;;6222667;23;20035;-80
2021/01/31 05:58:17;;;;;;;34.58;16.17;;;;;;;;;;6247155;23;20024;-81
2021/01/31 06:00:44;;;;;;;38.28;16.27;;;;;;;;;;6247577;23;20321;-81
2021/01/31 06:03:11;;;;;;;50.88;19.02;;;;;;;;;;6248942;22;20028;-81
2021/01/31 06:05:37;;;;;;;42.47;17.95;;;;;;;;;;6249004;22;20131;-81
2021/01/31 06:08:03;;;;;;;45.03;17.30;;;;;;;;;;6249582;22;20325;-81
2021/01/31 06:10:31;;;;;;;44.65;17.67;;;;;;;;;;6250468;22;20278;-81
2021/01/31 06:13:05;;;;;;;53.20;16.88;;;;;;;;;;6247958;23;20436;-81
2021/01/31 06:15:38;;;;;;;46.35;16.90;;;;;;;;;;6248192;23;20115;-80
2021/01/31 06:18:13;;;;;;;34.97;15.48;;;;;;;;;;6249950;22;20024;-80
2021/01/31 06:20:41;;;;;;;40.05;16.35;;;;;;;;;;6247037;23;20084;-80
2021/01/31 06:23:36;;;;;;;43.60;15.25;;;;;;;;;;6250744;23;20107;-80
2021/01/31 06:26:03;;;;;;;68.40;17.23;;;;;;;;;;6227641;23;20380;-80
2021/01/31 06:28:40;;;;;;;44.05;15.73;;;;;;;;;;6265823;22;20035;-81
2021/01/31 06:31:25;;;;;;;35.95;16.33;;;;;;;;;;6265814;22;20012;-80
2021/01/31 06:34:20;;;;;;;35.40;15.70;;;;;;;;;;6267619;22;20080;-80
2021/01/31 06:37:10;;;;;;;38.75;15.52;;;;;;;;;;6243264;22;20012;-80
2021/01/31 06:39:59;;;;;;;35.95;15.05;;;;;;;;;;6251354;23;20024;-81
2021/01/31 06:42:28;;;;;;;42.55;16.27;;;;;;;;;;6250998;23;20028;-81
2021/01/31 06:45:33;;;;;;;32.42;15.32;;;;;;;;;;6250894;23;20024;-81
2021/01/31 06:48:19;;;;;;;38.05;16.45;;;;;;;;;;6134915;23;20025;-80
2021/01/31 06:50:54;;;;;;;43.70;17.02;;;;;;;;;;6135682;23;20113;-80
2021/01/31 06:53:42;;;;;;;44.33;18.55;;;;;;;;;;6137108;23;20029;-80
2021/01/31 06:56:30;;;;;;;40.83;15.73;;;;;;;;;;6143406;23;20178;-81
2021/01/31 06:59:09;;;;;;;38.08;16.63;;;;;;;;;;6185774;22;20039;-81
2021/01/31 07:01:39;;;;;;;38.88;17.67;;;;;;;;;;6268187;23;20018;-80
2021/01/31 07:04:24;;;;;;;39.08;15.40;;;;;;;;;;6252889;23;20036;-80
2021/01/31 07:06:53;;;;;;;34.00;15.68;;;;;;;;;;6254283;23;20400;-80
2021/01/31 07:09:43;;;;;;;38.88;17.85;;;;;;;;;;6252794;22;20027;-81
2021/01/31 07:12:28;;;;;;;38.85;15.75;;;;;;;;;;6251450;22;20027;-79
2021/01/31 07:14:59;;;;;;;33.88;15.02;;;;;;;;;;6249637;23;20028;-81
2021/01/31 07:17:38;;;;;;;30.98;15.13;;;;;;;;;;6251415;22;20032;-81
2021/01/31 07:20:18;;;;;;;26.77;13.35;;;;;;;;;;6249005;23;20024;-80
2021/01/31 07:22:51;;;;;;;37.63;15.60;;;;;;;;;;6249978;22;20035;-80
2021/01/31 07:25:32;;;;;;;31.67;13.48;;;;;;;;;;6254096;22;20024;-80
2021/01/31 07:28:16;;;;;;;35.55;15.18;;;;;;;;;;6258635;22;20032;-80
2021/01/31 07:30:48;;;;;;;32.75;15.05;;;;;;;;;;6256112;22;20028;-80
2021/01/31 07:33:16;;;;;;;32.85;14.70;;;;;;;;;;6250789;23;20039;-82
2021/01/31 07:36:15;;;;;;;32.47;15.80;;;;;;;;;;6248843;23;20047;-81
2021/01/31 07:38:53;;;;;;;30.88;14.38;;;;;;;;;;6182982;23;20028;-80
2021/01/31 07:41:33;;;;;;;22.50;11.75;;;;;;;;;;6249065;23;20024;-81
2021/01/31 07:44:08;;;;;;;19.00;10.20;;;;;;;;;;6249357;23;20112;-81
2021/01/31 07:46:34;;;;;;;18.13;10.05;;;;;;;;;;6250688;22;20318;-81
2021/01/31 07:49:03;;;;;;;14.68;9.70;;;;;;;;;;6250933;22;20071;-81
2021/01/31 07:51:29;;;;;;;14.88;9.25;;;;;;;;;;6248466;23;20031;-81
2021/01/31 07:53:55;;;;;;;14.48;9.63;;;;;;;;;;6250815;22;20024;-80
2021/01/31 07:56:28;;;;;;;14.50;9.02;;;;;;;;;;6248700;23;20191;-80
2021/01/31 07:59:12;;;;;;;13.27;9.13;;;;;;;;;;6248659;23;20106;-81
2021/01/31 08:01:41;;;;;;;15.85;10.77;;;;;;;;;;6250775;22;20390;-80
2021/01/31 08:04:19;;;;;;;16.83;10.68;;;;;;;;;;6250893;22;20028;-81
2021/01/31 08:06:48;;;;;;;17.25;11.02;;;;;;;;;;6246874;23;20025;-80
2021/01/31 08:09:27;;;;;;;14.52;10.23;;;;;;;;;;6247166;22;20127;-80
2021/01/31 08:12:03;;;;;;;14.23;9.65;;;;;;;;;;6247771;22;20035;-80
2021/01/31 08:14:55;;;;;;;13.75;10.15;;;;;;;;;;6246714;23;20116;-80
2021/01/31 08:17:39;;;;;;;18.20;11.43;;;;;;;;;;6248759;23;20032;-80
2021/01/31 08:20:17;;;;;;;19.13;12.27;;;;;;;;;;6246236;23;20111;-80
2021/01/31 08:22:44;;;;;;;20.83;12.83;;;;;;;;;;6246179;22;20024;-80
2021/01/31 08:25:13;;;;;;;22.08;14.07;;;;;;;;;;6246477;22;20854;-79
2021/01/31 08:27:47;;;;;;;26.30;15.68;;;;;;;;;;6245341;22;20028;-79
2021/01/31 08:30:16;;;;;;;25.23;16.60;;;;;;;;;;6244994;22;20201;-79
2021/01/31 08:32:58;;;;;;;23.33;14.13;;;;;;;;;;6245939;23;20031;-81
2021/01/31 08:35:38;;;;;;;26.35;14.93;;;;;;;;;;6223560;23;20016;-82
2021/01/31 08:38:12;;;;;;;29.98;19.38;;;;;;;;;;6250964;22;20345;-80
2021/01/31 08:40:39;;;;;;;25.65;15.55;;;;;;;;;;6246437;23;20024;-81
2021/01/31 08:43:11;;;;;;;22.73;14.90;;;;;;;;;;6245166;23;20103;-78
2021/01/31 08:45:42;;;;;;;25.25;15.95;;;;;;;;;;6245986;23;20035;-79
2021/01/31 08:48:09;;;;;;;31.92;17.13;;;;;;;;;;6246583;22;20038;-80
2021/01/31 08:50:38;;;;;;;30.35;17.35;;;;;;;;;;6256954;23;20031;-81
2021/01/31 08:53:04;;;;;;;29.00;17.40;;;;;;;;;;6267052;22;20027;-81
2021/01/31 08:55:31;;;;;;;26.17;15.65;;;;;;;;;;6266270;22;20682;-82
2021/01/31 08:57:59;;;;;;;25.17;15.38;;;;;;;;;;6265221;22;20024;-83
2021/01/31 09:00:30;;;;;;;26.75;16.35;;;;;;;;;;6264475;22;20031;-81
2021/01/31 09:02:57;;;;;;;28.83;17.15;;;;;;;;;;6260555;23;20414;-82
2021/01/31 09:05:24;;;;;;;30.52;17.90;;;;;;;;;;6264937;23;20023;-83
2021/01/31 09:07:58;;;;;;;33.80;20.88;;;;;;;;;;6265857;22;20059;-83
2021/01/31 09:10:25;;;;;;;41.72;22.05;;;;;;;;;;6258616;23;20028;-83
2021/01/31 09:13:05;;;;;;;30.13;18.85;;;;;;;;;;6251751;23;20063;-81
2021/01/31 09:15:31;;;;;;;27.27;17.30;;;;;;;;;;6252915;23;20035;-83
2021/01/31 09:18:09;;;;;;;24.65;16.67;;;;;;;;;;6251722;23;20024;-82
2021/01/31 09:20:36;;;;;;;22.15;15.40;;;;;;;;;;6251633;23;20030;-82
2021/01/31 09:23:07;;;;;;;22.48;16.25;;;;;;;;;;6255153;23;20024;-81
2021/01/31 09:25:42;;;;;;;24.73;17.27;;;;;;;;;;6262530;23;20054;-81
2021/01/31 09:28:11;;;;;;;23.90;17.10;;;;;;;;;;6262018;23;20032;-81
2021/01/31 09:30:38;;;;;;;24.95;17.15;;;;;;;;;;6256817;23;20028;-82
2021/01/31 09:33:30;;;;;;;22.60;15.73;;;;;;;;;;6255543;23;20019;-88
2021/01/31 09:35:59;;;;;;;21.85;15.48;;;;;;;;;;6258965;23;20012;-88
2021/01/31 09:38:30;;;;;;;23.58;16.40;;;;;;;;;;6254065;23;20024;-85
2021/01/31 09:41:20;;;;;;;25.17;16.52;;;;;;;;;;6252494;23;20101;-84
2021/01/31 09:43:50;;;;;;;24.80;17.13;;;;;;;;;;6247989;23;20024;-83
2021/01/31 09:46:16;;;;;;;26.65;17.45;;;;;;;;;;6260298;23;20040;-82
2021/01/31 09:48:44;;;;;;;21.83;16.23;;;;;;;;;;6261097;23;20024;-82
2021/01/31 09:51:16;;;;;;;23.02;16.00;;;;;;;;;;6242576;23;20036;-82
2021/01/31 09:53:47;;;;;;;24.67;17.23;;;;;;;;;;6243936;23;20048;-82
2021/01/31 09:56:36;;;;;;;23.98;16.00;;;;;;;;;;6245931;23;20035;-83
2021/01/31 09:59:16;;;;;;;21.27;15.70;;;;;;;;;;6245554;23;20025;-82
2021/01/31 10:01:43;;;;;;;25.08;16.27;;;;;;;;;;6246611;23;20074;-84
2021/01/31 10:04:16;;;;;;;25.20;16.67;;;;;;;;;;6240568;23;20095;-83
2021/01/31 10:06:44;;;;;;;30.83;19.33;;;;;;;;;;6241831;23;20409;-83
2021/01/31 10:09:11;;;;;;;22.02;16.85;;;;;;;;;;6241928;23;20031;-82
2021/01/31 10:11:39;;;;;;;22.08;16.05;;;;;;;;;;6243173;23;20024;-83
2021/01/31 10:14:08;;;;;;;30.48;17.60;;;;;;;;;;6243574;23;20111;-83
2021/01/31 10:16:40;;;;;;;25.70;18.00;;;;;;;;;;6245986;23;20024;-83
2021/01/31 10:19:23;;;;;;;24.92;17.83;;;;;;;;;;6244231;23;20024;-84
2021/01/31 10:21:58;;;;;;;26.10;17.77;;;;;;;;;;6245586;23;20051;-84
2021/01/31 10:24:29;;;;;;;24.85;16.20;;;;;;;;;;6248058;22;20058;-85
2021/01/31 10:27:15;;;;;;;22.45;15.88;;;;;;;;;;6249965;23;20084;-86
2021/01/31 10:29:41;;;;;;;27.08;17.85;;;;;;;;;;6248741;23;20469;-86
2021/01/31 10:32:30;;;;;;;26.50;18.08;;;;;;;;;;6246525;23;20028;-86
2021/01/31 10:35:00;;;;;;;30.02;18.02;;;;;;;;;;6262814;22;20032;-86
2021/01/31 10:37:37;;;;;;;26.35;17.02;;;;;;;;;;6224049;23;20039;-87
2021/01/31 10:40:04;;;;;;;25.55;17.95;;;;;;;;;;6242335;23;20273;-86
2021/01/31 10:42:34;;;;;;;29.17;19.33;;;;;;;;;;6246099;23;20082;-87
2021/01/31 10:45:23;;;;;;;51.83;19.08;;;;;;;;;;6246820;23;20040;-87
2021/01/31 10:47:54;;;;;;;25.48;17.48;;;;;;;;;;6247007;23;20438;-86
2021/01/31 10:50:20;;;;;;;26.42;17.92;;;;;;;;;;6245327;23;20314;-85
2021/01/31 10:52:55;;;;;;;23.52;16.27;;;;;;;;;;6245954;22;20032;-86
2021/01/31 10:55:24;;;;;;;24.40;16.55;;;;;;;;;;6245840;22;20123;-86
2021/01/31 10:57:52;;;;;;;22.08;16.50;;;;;;;;;;6246236;23;20024;-85
2021/01/31 11:00:21;;;;;;;23.02;17.23;;;;;;;;;;6248097;23;20032;-85
2021/01/31 11:03:08;;;;;;;23.52;17.17;;;;;;;;;;6252186;23;20028;-84
2021/01/31 11:05:35;;;;;;;22.55;16.08;;;;;;;;;;6247170;23;20027;-84
2021/01/31 11:08:02;;;;;;;22.95;16.55;;;;;;;;;;6249877;22;20104;-85
2021/01/31 11:10:44;;;;;;;24.25;16.95;;;;;;;;;;6248189;23;20474;-86
2021/01/31 11:13:11;;;;;;;23.63;17.23;;;;;;;;;;6245721;23;20091;-86
2021/01/31 11:15:40;;;;;;;26.23;18.02;;;;;;;;;;6245125;23;20024;-86
2021/01/31 11:18:09;;;;;;;27.08;19.00;;;;;;;;;;6243512;23;20024;-87
2021/01/31 11:20:35;;;;;;;28.55;19.40;;;;;;;;;;6256874;22;20429;-87
2021/01/31 11:23:02;;;;;;;29.30;19.88;;;;;;;;;;6254240;23;20024;-86
2021/01/31 11:25:28;;;;;;;26.02;18.20;;;;;;;;;;6255124;22;20060;-87
2021/01/31 11:31:18;;;;;;;28.92;20.17;;;;;;;;;;6261797;23;20026;-88
2021/01/31 11:33:46;;;;;;;28.45;19.25;;;;;;;;;;6258402;23;20116;-87
2021/01/31 11:36:39;;;;;;;24.10;16.55;;;;;;;;;;6227682;23;20086;-88
2021/01/31 11:39:12;;;;;;;26.67;18.75;;;;;;;;;;6249485;22;20034;-87
2021/01/31 11:41:41;;;;;;;26.10;18.35;;;;;;;;;;6247920;23;20169;-88
2021/01/31 11:44:12;;;;;;;26.77;18.63;;;;;;;;;;6246893;22;20056;-87
2021/01/31 11:46:39;;;;;;;24.08;17.83;;;;;;;;;;6247328;23;20052;-88
2021/01/31 11:49:16;;;;;;;21.38;16.02;;;;;;;;;;6255473;22;20028;-88
2021/01/31 11:51:44;;;;;;;25.77;17.17;;;;;;;;;;6263746;22;20020;-87
2021/01/31 11:54:13;;;;;;;24.58;16.77;;;;;;;;;;6263601;22;20042;-87
2021/01/31 11:56:43;;;;;;;22.60;16.25;;;;;;;;;;6264086;23;20035;-87
2021/01/31 11:59:09;;;;;;;26.63;18.17;;;;;;;;;;6260007;23;20028;-87
2021/01/31 12:01:45;;;;;;;26.45;17.88;;;;;;;;;;6247836;22;20083;-87
2021/01/31 12:04:11;;;;;;;29.67;18.55;;;;;;;;;;6247688;23;20043;-86
2021/01/31 12:06:45;;;;;;;28.35;17.88;;;;;;;;;;6249208;22;20099;-86
2021/01/31 12:09:14;;;;;;;25.48;17.60;;;;;;;;;;6244099;22;20042;-86
2021/01/31 12:11:41;;;;;;;26.60;17.05;;;;;;;;;;6243150;23;20028;-87
2021/01/31 12:14:10;;;;;;;118.93;76.93;;;;;;;;;;6247094;22;20032;-86
2021/01/31 12:16:46;;;;;;;26.58;18.70;;;;;;;;;;6243102;23;20387;-87
2021/01/31 12:19:13;;;;;;;23.55;15.05;;;;;;;;;;6244876;23;20028;-86
2021/01/31 12:21:41;;;;;;;25.58;16.85;;;;;;;;;;6243146;23;20102;-87
2021/01/31 12:24:15;;;;;;;24.35;15.07;;;;;;;;;;6246854;22;20026;-87
2021/01/31 12:26:42;;;;;;;24.95;15.02;;;;;;;;;;6248928;23;20027;-86
2021/01/31 12:29:20;;;;;;;22.23;14.43;;;;;;;;;;6248097;23;20039;-86
2021/01/31 12:31:46;;;;;;;25.38;17.60;;;;;;;;;;6259580;23;20467;-86
2021/01/31 12:34:14;;;;;;;23.77;16.40;;;;;;;;;;6262865;22;20160;-86
2021/01/31 12:36:44;;;;;;;24.73;14.85;;;;;;;;;;6258602;23;20115;-87
2021/01/31 12:39:11;;;;;;;44.90;31.38;;;;;;;;;;6247608;22;20036;-86
2021/01/31 12:41:42;;;;;;;172.68;129.88;;;;;;;;;;6246266;23;20191;-87
2021/01/31 12:44:12;;;;;;;32.88;20.15;;;;;;;;;;6255792;23;20016;-87
2021/01/31 12:46:42;;;;;;;64.82;57.80;;;;;;;;;;6259347;22;20075;-87
2021/01/31 12:49:16;;;;;;;38.22;24.77;;;;;;;;;;6245110;22;20195;-87
2021/01/31 12:51:46;;;;;;;26.50;17.42;;;;;;;;;;6244236;23;20107;-87
2021/01/31 12:54:23;;;;;;;35.45;16.65;;;;;;;;;;6244109;23;20035;-87
2021/01/31 12:56:50;;;;;;;29.65;17.10;;;;;;;;;;6245949;23;20024;-87
2021/01/31 12:59:18;;;;;;;26.90;18.00;;;;;;;;;;6241403;23;20222;-87
2021/01/31 13:01:45;;;;;;;27.67;17.45;;;;;;;;;;6239870;23;20047;-87
2021/01/31 13:04:12;;;;;;;29.52;17.65;;;;;;;;;;6242418;22;20020;-87
2021/01/31 13:06:47;;;;;;;30.83;17.70;;;;;;;;;;6243780;23;20048;-87
2021/01/31 13:09:16;;;;;;;28.75;17.67;;;;;;;;;;6244391;23;20024;-87
2021/01/31 13:11:46;;;;;;;29.98;17.02;;;;;;;;;;6216541;23;20120;-88
2021/01/31 13:14:19;;;;;;;28.95;17.23;;;;;;;;;;6241717;23;20034;-87
2021/01/31 13:16:51;;;;;;;26.65;16.73;;;;;;;;;;6244606;23;20035;-88
2021/01/31 13:19:23;;;;;;;74.43;28.35;;;;;;;;;;6244651;23;20055;-88
2021/01/31 13:21:52;;;;;;;42.58;20.85;;;;;;;;;;6246609;23;20111;-87
2021/01/31 13:24:19;;;;;;;30.73;16.80;;;;;;;;;;6246030;23;20024;-88
2021/01/31 13:26:50;;;;;;;30.08;17.85;;;;;;;;;;6245414;23;20256;-87
2021/01/31 13:29:16;;;;;;;34.13;17.73;;;;;;;;;;6245966;23;20024;-87
2021/01/31 13:31:44;;;;;;;30.23;16.25;;;;;;;;;;6243980;22;20024;-86
2021/01/31 13:34:17;;;;;;;29.02;15.80;;;;;;;;;;6242357;23;20383;-87
2021/01/31 13:36:45;;;;;;;28.13;16.25;;;;;;;;;;6243133;23;20165;-86
2021/01/31 13:39:18;;;;;;;29.33;15.48;;;;;;;;;;6243564;23;20082;-87
2021/01/31 13:41:48;;;;;;;35.95;16.25;;;;;;;;;;6252654;22;20047;-85
2021/01/31 13:44:19;;;;;;;33.90;17.23;;;;;;;;;;6245296;22;20039;-86
2021/01/31 13:46:48;;;;;;;29.42;16.98;;;;;;;;;;6242850;23;20118;-87
2021/01/31 13:49:17;;;;;;;31.95;17.70;;;;;;;;;;6242777;23;20082;-86
2021/01/31 13:51:51;;;;;;;29.23;17.10;;;;;;;;;;6241865;23;20086;-86
2021/01/31 13:54:18;;;;;;;32.78;17.33;;;;;;;;;;6249020;22;20033;-87
2021/01/31 13:56:45;;;;;;;35.22;19.35;;;;;;;;;;6259696;23;20012;-87
2021/01/31 13:59:19;;;;;;;34.55;18.65;;;;;;;;;;6259973;23;20035;-87
2021/01/31 14:01:49;;;;;;;33.28;18.10;;;;;;;;;;6252112;23;20220;-87
2021/01/31 14:04:20;;;;;;;44.90;20.02;;;;;;;;;;6243118;23;20024;-87
2021/01/31 14:06:52;;;;;;;39.13;19.98;;;;;;;;;;6245694;23;20035;-88
2021/01/31 14:09:19;;;;;;;39.63;20.58;;;;;;;;;;6258920;22;20023;-87
2021/01/31 14:11:50;;;;;;;43.58;22.85;;;;;;;;;;6262941;22;20070;-87
2021/01/31 14:14:21;;;;;;;39.70;21.75;;;;;;;;;;6262358;22;20199;-87
2021/01/31 14:16:48;;;;;;;46.58;23.38;;;;;;;;;;6264408;22;20016;-86
2021/01/31 14:19:14;;;;;;;34.55;19.23;;;;;;;;;;6260891;22;20024;-86
2021/01/31 14:21:48;;;;;;;33.83;18.10;;;;;;;;;;6249829;23;20084;-87
2021/01/31 14:24:30;;;;;;;34.92;19.08;;;;;;;;;;6254441;22;20024;-88
2021/01/31 14:26:57;;;;;;;31.88;16.33;;;;;;;;;;6250816;23;20044;-88
2021/01/31 14:29:34;;;;;;;29.63;16.98;;;;;;;;;;6251209;23;20024;-88
2021/01/31 14:32:03;;;;;;;27.15;14.75;;;;;;;;;;6251253;23;20159;-90
2021/01/31 14:34:33;;;;;;;27.33;15.75;;;;;;;;;;6252185;23;20052;-90
2021/01/31 14:37:03;;;;;;;29.48;16.45;;;;;;;;;;6249653;23;20432;-89
2021/01/31 14:39:29;;;;;;;27.73;16.15;;;;;;;;;;6247398;23;20025;-88
2021/01/31 14:42:02;;;;;;;27.20;14.95;;;;;;;;;;6252683;23;20035;-88
2021/01/31 14:44:30;;;;;;;29.25;15.40;;;;;;;;;;6252060;23;20035;-89
2021/01/31 14:46:57;;;;;;;32.67;16.52;;;;;;;;;;6251586;23;20024;-89
2021/01/31 14:49:25;;;;;;;31.25;16.02;;;;;;;;;;6250030;22;20024;-89